Time;durP1;ratioP1;P1;durP2;ratioP2;P2;SDS_P1;SDS_P2;PMS_P1;PMS_P2;Temp;Humidity;BMP_temperature;BMP_pressure;BME280_temperature;BME280_humidity;BME280_pressure;Samples;Min_cycle;Max_cycle;Signal;HPM_P1;HPM_P2
2022/06/22 00:01:02;;;;;;;28.70;10.40;;;21.00;34.50;;;;;;4988042;28;20465;-70
2022/06/22 00:03:30;;;;;;;29.83;11.47;;;21.00;34.80;;;;;;4990260;28;20456;-70
2022/06/22 00:05:57;;;;;;;27.40;10.90;;;21.00;34.80;;;;;;4990077;28;20535;-71
2022/06/22 00:08:29;;;;;;;30.90;11.47;;;21.00;35.10;;;;;;4989733;28;20485;-71
2022/06/22 00:11:03;;;;;;;27.70;10.67;;;21.00;35.60;;;;;;4990032;28;20467;-72
2022/06/22 00:13:32;;;;;;;28.50;10.90;;;21.00;36.10;;;;;;4988532;28;20456;-73
2022/06/22 00:16:01;;;;;;;27.97;10.60;;;20.90;36.60;;;;;;4988166;28;20465;-69
2022/06/22 00:18:31;;;;;;;28.47;10.83;;;20.90;37.30;;;;;;4988788;28;20913;-70
2022/06/22 00:21:02;;;;;;;30.23;9.87;;;20.90;38.20;;;;;;4989851;28;20476;-71
2022/06/22 00:23:36;;;;;;;28.13;10.13;;;20.90;38.10;;;;;;4988978;28;20441;-69
2022/06/22 00:26:16;;;;;;;33.13;10.17;;;20.80;38.20;;;;;;4988300;28;20460;-72
2022/06/22 00:29:01;;;;;;;29.10;9.50;;;20.90;37.50;;;;;;4989580;28;20488;-70
2022/06/22 00:31:36;;;;;;;28.23;9.97;;;20.80;37.40;;;;;;4988897;28;20495;-70
2022/06/22 00:34:05;;;;;;;27.83;10.43;;;20.80;37.00;;;;;;4988240;28;20460;-70
2022/06/22 00:36:36;;;;;;;27.63;10.40;;;20.80;36.80;;;;;;4986865;28;20469;-71
2022/06/22 00:39:32;;;;;;;28.70;9.80;;;20.80;36.40;;;;;;4988966;28;20906;-70
2022/06/22 00:42:14;;;;;;;29.07;9.67;;;20.90;36.70;;;;;;4972025;28;20825;-70
2022/06/22 00:44:45;;;;;;;28.67;9.17;;;20.80;36.30;;;;;;4989679;28;20920;-70
2022/06/22 00:47:24;;;;;;;27.90;9.03;;;20.80;36.20;;;;;;4987452;28;20490;-69
2022/06/22 00:49:51;;;;;;;32.33;10.17;;;20.70;36.90;;;;;;4988668;28;20523;-70
2022/06/22 00:52:26;;;;;;;30.03;9.80;;;20.70;37.20;;;;;;4988780;28;20479;-72
2022/06/22 00:54:53;;;;;;;26.33;9.30;;;20.70;36.90;;;;;;4987748;28;20468;-71
2022/06/22 00:57:27;;;;;;;30.13;9.63;;;20.70;36.70;;;;;;4986924;28;20899;-73
2022/06/22 00:59:59;;;;;;;30.13;9.30;;;20.70;36.50;;;;;;4988139;28;20456;-71
2022/06/22 01:02:33;;;;;;;27.57;9.20;;;20.70;37.50;;;;;;4988571;28;20556;-71
2022/06/22 01:05:11;;;;;;;29.40;10.23;;;20.60;37.50;;;;;;4989323;28;20471;-72
2022/06/22 01:07:43;;;;;;;29.03;10.00;;;20.60;37.10;;;;;;4985773;28;20511;-73
2022/06/22 01:10:14;;;;;;;27.20;9.13;;;20.60;36.80;;;;;;4988555;28;20929;-72
2022/06/22 01:12:50;;;;;;;31.93;10.20;;;20.60;36.80;;;;;;4988938;28;20452;-70
2022/06/22 01:15:24;;;;;;;27.87;9.40;;;20.60;36.90;;;;;;4987924;28;20469;-70
2022/06/22 01:17:57;;;;;;;27.83;9.57;;;20.60;37.00;;;;;;4988916;28;20480;-69
2022/06/22 01:20:32;;;;;;;30.40;9.40;;;20.60;37.10;;;;;;4989131;28;20490;-70
2022/06/22 01:23:34;;;;;;;28.63;8.67;;;20.60;37.20;;;;;;4989029;28;21124;-71
2022/06/22 01:26:17;;;;;;;30.73;9.60;;;20.60;37.70;;;;;;4969235;28;20442;-71
2022/06/22 01:28:53;;;;;;;27.30;8.87;;;20.60;37.40;;;;;;4968996;28;20481;-71
2022/06/22 01:31:20;;;;;;;30.00;8.80;;;20.60;37.30;;;;;;4986473;28;20465;-71
2022/06/22 01:33:49;;;;;;;27.70;8.67;;;20.60;36.90;;;;;;4987494;28;20471;-72
2022/06/22 01:36:21;;;;;;;29.80;8.60;;;20.60;36.90;;;;;;4987971;28;20457;-70
2022/06/22 01:38:48;;;;;;;31.83;10.53;;;20.60;37.20;;;;;;4988238;28;20493;-71
2022/06/22 01:41:27;;;;;;;27.00;8.60;;;20.60;37.20;;;;;;4988241;28;21024;-71
2022/06/22 01:44:01;;;;;;;28.97;8.97;;;20.60;37.10;;;;;;4987346;28;20475;-70
2022/06/22 01:46:39;;;;;;;28.90;9.30;;;20.60;37.30;;;;;;4990105;28;20496;-70
2022/06/22 01:49:13;;;;;;;29.20;8.50;;;20.60;37.50;;;;;;4991576;28;20484;-70
2022/06/22 01:51:45;;;;;;;27.43;7.90;;;20.60;37.40;;;;;;4991686;28;20983;-71
2022/06/22 01:54:19;;;;;;;28.90;7.77;;;20.60;38.30;;;;;;4990798;28;20468;-69
2022/06/22 01:56:52;;;;;;;29.20;7.90;;;20.60;38.00;;;;;;4991141;28;20504;-72
2022/06/22 01:59:27;;;;;;;27.60;7.43;;;20.60;37.80;;;;;;4992003;28;20487;-70
2022/06/22 02:01:59;;;;;;;28.40;8.30;;;20.50;37.80;;;;;;4991560;28;20542;-71
2022/06/22 02:04:34;;;;;;;30.57;7.90;;;20.50;37.90;;;;;;4990951;28;20578;-70
2022/06/22 02:10:11;;;;;;;29.97;8.40;;;20.50;37.80;;;;;;4991778;28;20842;-71
2022/06/22 02:12:44;;;;;;;29.27;7.93;;;20.50;37.90;;;;;;4991919;28;20440;-71
2022/06/22 02:15:20;;;;;;;29.67;7.60;;;20.50;38.20;;;;;;4991413;28;20448;-71
2022/06/22 02:17:47;;;;;;;32.70;8.03;;;20.50;38.10;;;;;;4988773;28;20503;-71
2022/06/22 02:20:29;;;;;;;31.40;8.37;;;20.50;37.90;;;;;;4990366;28;20504;-69
2022/06/22 02:23:01;;;;;;;28.70;8.47;;;20.50;38.40;;;;;;4991904;28;20480;-72
2022/06/22 02:25:31;;;;;;;29.70;7.90;;;20.50;38.40;;;;;;4991996;28;20445;-69
2022/06/22 02:27:58;;;;;;;32.20;9.03;;;20.50;38.90;;;;;;4990872;28;20480;-70
2022/06/22 02:30:26;;;;;;;31.20;8.93;;;20.60;38.50;;;;;;4989832;28;20503;-70
2022/06/22 02:32:53;;;;;;;33.90;8.03;;;20.60;39.00;;;;;;4991294;28;20456;-70
2022/06/22 02:35:20;;;;;;;32.00;8.10;;;20.60;38.80;;;;;;4991704;28;20460;-70
2022/06/22 02:37:53;;;;;;;30.93;8.47;;;20.60;38.80;;;;;;4989599;28;21038;-71
2022/06/22 02:40:24;;;;;;;29.20;7.30;;;20.60;38.70;;;;;;4989928;28;20457;-70
2022/06/22 02:45:38;;;;;;;28.57;7.60;;;20.60;38.40;;;;;;4991088;28;20460;-70
2022/06/22 02:48:23;;;;;;;32.87;7.80;;;20.60;38.50;;;;;;4990339;28;20481;-70
2022/06/22 02:50:59;;;;;;;28.60;7.93;;;20.60;38.80;;;;;;4989547;28;20957;-70
2022/06/22 02:53:29;;;;;;;29.53;8.00;;;20.60;38.40;;;;;;4988408;28;20527;-71
2022/06/22 02:55:56;;;;;;;32.40;8.93;;;20.60;38.20;;;;;;4990314;28;20465;-70
2022/06/22 02:58:26;;;;;;;30.03;7.47;;;20.60;38.40;;;;;;4990018;28;20503;-70
2022/06/22 03:00:55;;;;;;;31.23;7.77;;;20.60;38.10;;;;;;4988391;28;20476;-71
2022/06/22 03:03:24;;;;;;;33.50;7.63;;;20.60;38.00;;;;;;4990531;28;20457;-70
2022/06/22 03:05:54;;;;;;;30.23;8.17;;;20.60;37.80;;;;;;4990679;28;20547;-70
2022/06/22 03:08:21;;;;;;;30.00;7.80;;;20.70;37.70;;;;;;4990180;28;20523;-71
2022/06/22 03:10:52;;;;;;;32.03;7.73;;;20.70;37.90;;;;;;4989258;28;20457;-71
2022/06/22 03:13:24;;;;;;;39.77;8.73;;;20.70;37.70;;;;;;4971454;28;20461;-71
2022/06/22 03:15:52;;;;;;;30.90;8.07;;;20.70;38.00;;;;;;4971148;28;20443;-70
2022/06/22 03:18:24;;;;;;;27.87;7.50;;;20.70;37.80;;;;;;4971457;28;20470;-70
2022/06/22 03:20:54;;;;;;;29.20;7.60;;;20.70;38.30;;;;;;4970751;28;20540;-71
2022/06/22 03:23:27;;;;;;;30.87;8.10;;;20.60;38.60;;;;;;4971033;28;21014;-71
2022/06/22 03:26:05;;;;;;;40.70;8.33;;;20.60;38.80;;;;;;4971601;28;20879;-72
2022/06/22 03:28:37;;;;;;;32.03;7.87;;;20.60;38.80;;;;;;4990902;28;20997;-72
2022/06/22 03:31:44;;;;;;;30.17;8.23;;;20.70;38.30;;;;;;4990232;28;20472;-70
2022/06/22 03:34:17;;;;;;;33.20;7.90;;;20.60;38.80;;;;;;4989100;28;20507;-70
2022/06/22 03:36:48;;;;;;;33.30;9.33;;;20.70;38.10;;;;;;4990001;28;20984;-72
2022/06/22 03:39:19;;;;;;;32.97;8.20;;;20.60;38.40;;;;;;4988536;28;20488;-70
2022/06/22 03:41:52;;;;;;;33.80;7.97;;;20.70;38.40;;;;;;4990681;28;20473;-70
2022/06/22 03:44:27;;;;;;;28.43;7.60;;;20.60;38.70;;;;;;4984686;28;20468;-67
2022/06/22 03:47:30;;;;;;;31.60;8.10;;;20.70;39.00;;;;;;4989867;28;20445;-70
2022/06/22 03:50:05;;;;;;;33.80;9.10;;;20.70;39.00;;;;;;4967829;28;20465;-66
2022/06/22 03:52:39;;;;;;;30.93;8.23;;;20.60;39.80;;;;;;4982089;28;20464;-67
2022/06/22 03:55:09;;;;;;;32.60;8.23;;;20.60;39.80;;;;;;4987730;28;20480;-66
2022/06/22 03:57:40;;;;;;;30.67;8.20;;;20.70;39.60;;;;;;4989876;28;20483;-67
2022/06/22 04:00:11;;;;;;;32.33;8.03;;;20.70;39.60;;;;;;4989259;28;20464;-66
2022/06/22 04:02:38;;;;;;;30.47;7.30;;;20.80;39.30;;;;;;4988469;28;20476;-66
2022/06/22 04:05:11;;;;;;;30.67;7.50;;;20.80;39.10;;;;;;4987288;28;20467;-66
2022/06/22 04:07:40;;;;;;;30.63;7.33;;;20.90;38.70;;;;;;4988347;28;20488;-66
2022/06/22 04:10:14;;;;;;;32.20;7.77;;;20.90;38.20;;;;;;4988195;28;20468;-67
2022/06/22 04:12:47;;;;;;;31.10;8.40;;;21.00;38.20;;;;;;4988966;28;20464;-67
2022/06/22 04:15:25;;;;;;;29.57;6.90;;;21.00;38.10;;;;;;4987347;28;20465;-66
2022/06/22 04:17:56;;;;;;;30.20;7.10;;;21.00;38.40;;;;;;4989145;28;20477;-69
2022/06/22 04:20:49;;;;;;;29.70;7.40;;;21.00;38.00;;;;;;4988813;28;20989;-69
2022/06/22 04:23:19;;;;;;;33.70;7.13;;;21.10;37.90;;;;;;4989124;28;20472;-70
2022/06/22 04:25:48;;;;;;;34.50;8.43;;;21.10;37.90;;;;;;4987491;28;20468;-70
2022/06/22 04:28:16;;;;;;;32.80;6.90;;;21.20;37.40;;;;;;4989325;28;20484;-70
2022/06/22 04:30:46;;;;;;;33.90;7.47;;;21.30;37.10;;;;;;4988494;28;20476;-70
2022/06/22 04:33:16;;;;;;;31.23;7.40;;;21.30;36.90;;;;;;4989033;28;20452;-70
2022/06/22 04:35:50;;;;;;;31.37;7.03;;;21.40;37.00;;;;;;4987530;28;20475;-70
2022/06/22 04:38:22;;;;;;;32.30;7.40;;;21.40;37.10;;;;;;4988672;28;20488;-70
2022/06/22 04:40:57;;;;;;;31.03;7.07;;;21.40;37.20;;;;;;4988904;28;20453;-70
2022/06/22 04:43:25;;;;;;;32.83;7.27;;;21.50;37.40;;;;;;4988744;28;20479;-70
2022/06/22 04:45:53;;;;;;;33.20;7.90;;;21.50;37.10;;;;;;4986959;28;20465;-70
2022/06/22 04:48:25;;;;;;;31.27;6.80;;;21.50;36.90;;;;;;4988685;28;20491;-72
2022/06/22 04:50:57;;;;;;;33.70;7.73;;;21.60;37.10;;;;;;4988639;28;20449;-69
2022/06/22 04:53:29;;;;;;;30.07;7.40;;;21.70;37.40;;;;;;4988271;28;20456;-70
2022/06/22 04:55:59;;;;;;;31.83;7.77;;;21.90;38.00;;;;;;4987525;28;20468;-71
2022/06/22 04:58:44;;;;;;;33.70;8.10;;;22.00;38.10;;;;;;4988434;28;20487;-71
2022/06/22 05:01:16;;;;;;;32.73;7.30;;;22.10;36.90;;;;;;4988554;28;20476;-69
2022/06/22 05:03:43;;;;;;;31.37;8.23;;;22.10;36.40;;;;;;4988108;28;20549;-70
2022/06/22 05:06:18;;;;;;;28.47;6.67;;;22.10;36.20;;;;;;4987496;28;20476;-71
2022/06/22 05:08:51;;;;;;;29.50;7.30;;;22.10;36.10;;;;;;4988679;28;20479;-72
2022/06/22 05:11:21;;;;;;;30.47;6.97;;;22.10;36.20;;;;;;4988398;28;20465;-70
2022/06/22 05:13:51;;;;;;;32.77;6.33;;;22.10;36.20;;;;;;4988146;28;20461;-71
2022/06/22 05:16:21;;;;;;;35.90;9.37;;;22.00;36.00;;;;;;4987377;28;20981;-71
2022/06/22 05:18:49;;;;;;;38.33;7.93;;;22.10;36.10;;;;;;4988511;28;20608;-70
2022/06/22 05:21:20;;;;;;;30.83;7.10;;;22.10;35.80;;;;;;4992166;28;20472;-71
2022/06/22 05:23:52;;;;;;;32.47;6.43;;;22.00;35.80;;;;;;4992587;28;20483;-70
2022/06/22 05:26:23;;;;;;;30.10;6.50;;;22.00;35.70;;;;;;4992301;28;20636;-70
2022/06/22 05:28:56;;;;;;;30.37;7.20;;;22.10;35.50;;;;;;4991200;28;20993;-70
2022/06/22 05:31:28;;;;;;;31.53;7.50;;;22.10;35.50;;;;;;4992326;28;20480;-70
2022/06/22 05:34:02;;;;;;;31.43;7.47;;;22.10;35.40;;;;;;4992318;28;20452;-70
2022/06/22 05:36:34;;;;;;;30.17;7.43;;;22.20;35.10;;;;;;4992469;28;20468;-69
2022/06/22 05:39:02;;;;;;;30.53;6.67;;;22.20;35.00;;;;;;4991019;28;20772;-70
2022/06/22 05:41:32;;;;;;;28.40;6.60;;;22.20;34.80;;;;;;4992199;28;20467;-69
2022/06/22 05:44:03;;;;;;;34.93;6.83;;;22.20;34.70;;;;;;4992319;28;20468;-71
2022/06/22 05:46:29;;;;;;;30.17;6.10;;;22.20;34.70;;;;;;4992854;28;20452;-69
2022/06/22 05:48:57;;;;;;;35.17;6.93;;;22.20;34.40;;;;;;4990872;28;20488;-69
2022/06/22 05:51:30;;;;;;;30.67;6.97;;;22.10;34.20;;;;;;4991854;28;20992;-71
2022/06/22 05:54:04;;;;;;;29.00;5.60;;;22.20;34.20;;;;;;4991810;28;20968;-71
2022/06/22 05:56:38;;;;;;;34.17;6.70;;;22.20;34.00;;;;;;4992537;28;20472;-70
2022/06/22 05:59:13;;;;;;;30.77;6.77;;;22.20;34.30;;;;;;4990858;28;20488;-71
2022/06/22 06:01:46;;;;;;;32.67;6.57;;;22.20;34.30;;;;;;4990666;28;20472;-70
2022/06/22 06:04:22;;;;;;;31.80;7.00;;;22.20;34.10;;;;;;4991407;28;20484;-70
2022/06/22 06:06:49;;;;;;;33.00;7.33;;;22.20;34.00;;;;;;4991585;28;20460;-71
2022/06/22 06:09:22;;;;;;;34.17;5.97;;;22.20;34.00;;;;;;4990107;28;20524;-71
2022/06/22 06:12:02;;;;;;;30.97;7.00;;;22.20;33.90;;;;;;4991685;28;20940;-71
2022/06/22 06:14:33;;;;;;;30.90;6.53;;;22.20;34.00;;;;;;4991949;28;20456;-71
2022/06/22 06:17:06;;;;;;;31.60;6.27;;;22.30;34.10;;;;;;4985477;28;20457;-70
2022/06/22 06:19:38;;;;;;;35.37;6.80;;;22.40;34.00;;;;;;4989778;28;20475;-70
2022/06/22 06:22:06;;;;;;;31.13;6.20;;;22.50;34.00;;;;;;4990442;28;21035;-70
2022/06/22 06:24:40;;;;;;;33.97;6.53;;;22.60;33.80;;;;;;4991146;28;20846;-70
2022/06/22 06:30:00;;;;;;;32.90;7.50;;;22.70;33.90;;;;;;4990632;28;20483;-70
2022/06/22 06:32:34;;;;;;;30.80;6.73;;;22.80;33.70;;;;;;4988571;28;21020;-71
2022/06/22 06:35:11;;;;;;;32.83;7.00;;;22.80;33.80;;;;;;4991613;28;20449;-71
2022/06/22 06:37:46;;;;;;;30.43;6.93;;;22.90;33.70;;;;;;4990561;28;20876;-71
2022/06/22 06:40:21;;;;;;;31.60;8.03;;;22.90;33.30;;;;;;4990050;28;20476;-71
2022/06/22 06:42:55;;;;;;;30.77;6.80;;;22.90;33.30;;;;;;4990683;28;20484;-71
2022/06/22 06:45:24;;;;;;;36.03;6.90;;;23.00;33.30;;;;;;4990748;28;20472;-73
2022/06/22 06:47:58;;;;;;;31.40;8.00;;;23.10;33.30;;;;;;4990521;28;20867;-70
2022/06/22 06:50:31;;;;;;;37.60;7.87;;;23.10;33.40;;;;;;4989497;28;20476;-70
2022/06/22 06:53:06;;;;;;;36.60;8.37;;;23.30;33.20;;;;;;4991076;28;20457;-70
2022/06/22 06:55:45;;;;;;;29.83;7.23;;;23.50;33.00;;;;;;4990466;28;20937;-70
2022/06/22 06:58:18;;;;;;;35.50;7.30;;;23.60;31.10;;;;;;4973547;28;20556;-69
2022/06/22 07:00:47;;;;;;;31.97;6.90;;;23.70;30.60;;;;;;4977988;28;20460;-71
2022/06/22 07:03:21;;;;;;;32.47;6.70;;;23.80;30.10;;;;;;4991098;28;20488;-72
2022/06/22 07:05:50;;;;;;;29.00;7.03;;;23.70;30.00;;;;;;4990692;28;20448;-69
2022/06/22 07:08:19;;;;;;;31.10;7.60;;;23.70;30.40;;;;;;4973683;28;20509;-70
2022/06/22 07:10:52;;;;;;;31.10;6.77;;;23.60;30.60;;;;;;4976346;28;20472;-70
2022/06/22 07:13:26;;;;;;;33.73;7.27;;;23.60;30.70;;;;;;4990952;28;20780;-72
2022/06/22 07:15:57;;;;;;;32.03;7.00;;;23.60;30.50;;;;;;4990675;28;20452;-70
2022/06/22 07:18:30;;;;;;;31.90;7.17;;;23.60;30.50;;;;;;4989899;28;20489;-69
2022/06/22 07:21:11;;;;;;;30.13;7.00;;;23.60;30.60;;;;;;4989250;28;20962;-71
2022/06/22 07:23:44;;;;;;;32.50;7.33;;;23.60;30.70;;;;;;4990517;28;20480;-71
2022/06/22 07:26:20;;;;;;;34.10;7.93;;;23.60;30.70;;;;;;4991208;28;20483;-71
2022/06/22 07:28:53;;;;;;;31.27;6.50;;;23.70;30.40;;;;;;4970798;28;20982;-70
2022/06/22 07:31:24;;;;;;;36.03;7.60;;;23.70;30.60;;;;;;4984282;28;20484;-69
2022/06/22 07:33:57;;;;;;;30.97;7.37;;;23.70;30.40;;;;;;4990640;28;20445;-71
2022/06/22 07:36:31;;;;;;;32.40;6.63;;;23.70;30.50;;;;;;4977208;28;20464;-71
2022/06/22 07:39:02;;;;;;;29.53;6.80;;;23.70;30.70;;;;;;4983047;28;20492;-70
2022/06/22 07:41:32;;;;;;;28.90;6.50;;;23.80;31.10;;;;;;4988484;28;20461;-71
2022/06/22 07:44:04;;;;;;;31.50;7.13;;;23.80;31.20;;;;;;4990669;28;20827;-70
2022/06/22 07:46:37;;;;;;;33.27;7.70;;;23.80;30.70;;;;;;4984248;28;20468;-70
2022/06/22 07:49:10;;;;;;;29.53;8.27;;;23.90;30.50;;;;;;4977475;28;20484;-70
2022/06/22 07:51:43;;;;;;;27.83;7.90;;;24.00;30.90;;;;;;4984190;28;20562;-70
2022/06/22 07:54:14;;;;;;;33.40;8.73;;;24.10;30.40;;;;;;4982978;28;21004;-70
2022/06/22 07:56:53;;;;;;;34.83;8.00;;;24.20;30.40;;;;;;4988297;28;20481;-70
2022/06/22 07:59:26;;;;;;;35.20;7.40;;;24.20;29.90;;;;;;4987890;28;20554;-71
2022/06/22 08:01:57;;;;;;;30.73;6.77;;;24.20;29.20;;;;;;4988070;28;20500;-71
2022/06/22 08:04:29;;;;;;;28.33;7.30;;;24.20;29.20;;;;;;4984779;28;20485;-70
2022/06/22 08:07:01;;;;;;;36.37;7.90;;;24.20;29.30;;;;;;4984044;28;20460;-71
2022/06/22 08:09:34;;;;;;;30.73;7.93;;;24.30;29.60;;;;;;4976184;28;20457;-70
2022/06/22 08:12:07;;;;;;;32.23;8.30;;;24.30;29.70;;;;;;4985087;28;20461;-70
2022/06/22 08:14:39;;;;;;;31.60;7.37;;;24.20;30.00;;;;;;4980874;28;20453;-70
2022/06/22 08:17:12;;;;;;;33.87;8.20;;;24.20;30.40;;;;;;4979979;28;20476;-70
2022/06/22 08:19:38;;;;;;;31.30;8.17;;;24.20;30.40;;;;;;4986593;28;20461;-70
2022/06/22 08:22:07;;;;;;;34.57;8.50;;;24.30;30.50;;;;;;4979832;28;20465;-71
2022/06/22 08:24:41;;;;;;;28.77;8.10;;;24.20;30.40;;;;;;4988401;28;20485;-70
2022/06/22 08:27:13;;;;;;;30.83;7.63;;;24.20;30.90;;;;;;4979004;28;20458;-71
2022/06/22 08:29:40;;;;;;;30.80;8.27;;;24.20;31.20;;;;;;4984817;28;20512;-70
2022/06/22 08:32:14;;;;;;;31.00;8.33;;;24.20;31.50;;;;;;4980689;28;20489;-71
2022/06/22 08:34:45;;;;;;;31.53;8.57;;;24.30;31.80;;;;;;4982336;28;20445;-71
2022/06/22 08:37:16;;;;;;;29.07;8.57;;;24.30;31.70;;;;;;4976285;28;20457;-71
2022/06/22 08:39:49;;;;;;;34.93;9.33;;;24.30;31.40;;;;;;4982598;28;20465;-70
2022/06/22 08:42:26;;;;;;;29.30;8.93;;;24.30;31.00;;;;;;4984281;28;20899;-71
2022/06/22 08:45:10;;;;;;;31.80;9.50;;;24.30;30.60;;;;;;4974052;28;20474;-71
2022/06/22 08:47:56;;;;;;;32.30;9.20;;;24.30;30.30;;;;;;4984389;28;20491;-71
2022/06/22 08:50:52;;;;;;;31.03;8.80;;;24.40;30.20;;;;;;4986659;28;20488;-71
2022/06/22 08:53:29;;;;;;;32.30;10.43;;;24.40;29.80;;;;;;4969124;28;20464;-71
2022/06/22 08:56:20;;;;;;;33.10;9.13;;;24.40;30.00;;;;;;4988160;28;20444;-71
2022/06/22 08:59:20;;;;;;;33.13;10.07;;;24.40;30.00;;;;;;4981020;28;20485;-71
2022/06/22 09:01:58;;;;;;;30.57;9.67;;;24.40;30.10;;;;;;4987254;28;20473;-71
2022/06/22 09:04:51;;;;;;;31.40;9.60;;;24.40;30.10;;;;;;4977688;28;20466;-70
2022/06/22 09:07:35;;;;;;;33.70;9.47;;;24.30;30.10;;;;;;4975546;28;20504;-71
2022/06/22 09:10:27;;;;;;;37.00;11.00;;;24.20;30.00;;;;;;4976394;28;20460;-71
2022/06/22 09:13:06;;;;;;;32.37;10.40;;;24.20;30.30;;;;;;4988457;28;20468;-70
2022/06/22 09:15:46;;;;;;;31.47;10.23;;;24.20;30.50;;;;;;4988615;28;20471;-69
2022/06/22 09:18:42;;;;;;;32.87;10.20;;;24.10;30.60;;;;;;4981025;28;20491;-72
2022/06/22 09:21:20;;;;;;;32.67;10.23;;;24.00;30.50;;;;;;4970401;28;20460;-70
2022/06/22 09:24:01;;;;;;;32.60;10.93;;;23.90;30.90;;;;;;4989062;28;20559;-70
2022/06/22 09:26:39;;;;;;;30.67;10.97;;;23.80;31.10;;;;;;4988454;28;20788;-70
2022/06/22 09:29:24;;;;;;;32.47;10.33;;;23.70;31.40;;;;;;4987394;28;20492;-69
2022/06/22 09:32:24;;;;;;;33.50;11.40;;;23.70;31.60;;;;;;4983812;28;20488;-72
2022/06/22 09:35:13;;;;;;;31.03;10.90;;;23.70;31.60;;;;;;4987735;28;20452;-70
2022/06/22 09:37:59;;;;;;;36.07;11.27;;;23.70;31.50;;;;;;4973853;28;20542;-70
2022/06/22 09:40:45;;;;;;;30.70;11.50;;;23.70;31.60;;;;;;4986555;28;20449;-70
2022/06/22 09:43:46;;;;;;;35.50;12.07;;;23.70;32.50;;;;;;4988269;28;20468;-70
2022/06/22 09:46:47;;;;;;;35.63;11.50;;;23.60;32.60;;;;;;4969024;28;20457;-70
2022/06/22 09:49:41;;;;;;;37.80;11.63;;;23.70;32.50;;;;;;4986916;28;20473;-71
2022/06/22 09:52:30;;;;;;;33.20;11.07;;;23.80;32.40;;;;;;4987316;28;20840;-72
2022/06/22 09:58:49;;;;;;;34.63;11.00;;;24.30;31.00;;;;;;4970255;28;21052;-70
2022/06/22 10:01:24;;;;;;;34.13;12.37;;;24.50;31.00;;;;;;4968335;28;20847;-71
2022/06/22 10:04:13;;;;;;;34.23;10.97;;;24.70;30.40;;;;;;4989201;28;20479;-72
2022/06/22 10:06:58;;;;;;;33.17;11.10;;;24.80;30.10;;;;;;4987801;28;20465;-70
2022/06/22 10:09:46;;;;;;;31.20;10.13;;;24.90;29.70;;;;;;4981284;28;20481;-71
2022/06/22 10:12:29;;;;;;;35.93;11.10;;;24.90;29.80;;;;;;4978041;28;20464;-70
2022/06/22 10:15:33;;;;;;;33.07;11.93;;;24.90;30.20;;;;;;4979593;28;20448;-70
2022/06/22 10:18:20;;;;;;;32.17;11.30;;;24.80;29.10;;;;;;4989699;28;20757;-71
2022/06/22 10:21:00;;;;;;;34.40;12.33;;;24.80;29.40;;;;;;4990457;28;20840;-70
2022/06/22 10:23:49;;;;;;;32.10;11.83;;;24.80;29.60;;;;;;4984843;28;20461;-69
2022/06/22 10:26:41;;;;;;;32.87;11.93;;;24.90;30.30;;;;;;4990455;28;20445;-69
2022/06/22 10:29:44;;;;;;;35.33;12.43;;;24.90;29.30;;;;;;4971816;28;20856;-70
2022/06/22 10:32:35;;;;;;;34.47;12.23;;;24.80;29.40;;;;;;4978919;28;20483;-69
2022/06/22 10:35:14;;;;;;;36.30;12.23;;;24.80;29.70;;;;;;4991715;28;20440;-69
2022/06/22 10:38:22;;;;;;;37.27;13.50;;;24.80;29.90;;;;;;4984949;28;20886;-71
2022/06/22 10:47:33;;;;;;;33.00;13.40;;;24.70;31.50;;;;;;4922941;29;20623;-69
2022/06/22 10:50:20;;;;;;;33.07;13.07;;;24.70;31.70;;;;;;4982517;28;20464;-71
2022/06/22 10:53:16;;;;;;;33.37;13.23;;;24.60;31.60;;;;;;4977288;28;20801;-71
2022/06/22 10:55:58;;;;;;;32.90;12.57;;;24.60;31.90;;;;;;4991165;28;20452;-70
2022/06/22 10:58:44;;;;;;;32.77;12.80;;;24.70;32.10;;;;;;4991499;28;20476;-70
2022/06/22 11:01:36;;;;;;;32.27;13.00;;;24.70;32.10;;;;;;4976663;28;20476;-69
2022/06/22 11:04:50;;;;;;;31.20;14.20;;;24.80;32.30;;;;;;4989484;28;20480;-70
2022/06/22 11:07:53;;;;;;;35.63;14.07;;;24.80;32.50;;;;;;4977371;28;20487;-70
2022/06/22 11:10:52;;;;;;;36.73;13.67;;;24.90;31.80;;;;;;4984336;28;20460;-71
2022/06/22 11:13:56;;;;;;;32.53;11.00;;;24.90;31.40;;;;;;4989393;28;20469;-71
2022/06/22 11:16:46;;;;;;;37.57;9.90;;;24.80;30.30;;;;;;4983077;28;20462;-69
2022/06/22 11:19:37;;;;;;;32.50;9.13;;;24.70;30.00;;;;;;4989697;28;21202;-70
2022/06/22 11:22:16;;;;;;;34.70;10.13;;;24.50;30.20;;;;;;4984708;28;20477;-71
2022/06/22 11:25:15;;;;;;;32.63;9.73;;;24.40;30.90;;;;;;4987447;28;20489;-69
2022/06/22 11:30:56;;;;;;;31.97;9.60;;;24.30;31.60;;;;;;4980414;28;20464;-69
2022/06/22 11:33:42;;;;;;;32.77;8.50;;;24.10;31.70;;;;;;4989300;28;20496;-71
2022/06/22 11:36:23;;;;;;;34.93;8.77;;;24.10;31.70;;;;;;4990702;28;20452;-69
2022/06/22 11:39:19;;;;;;;33.70;7.47;;;24.00;31.40;;;;;;4989731;28;20492;-69
2022/06/22 11:42:01;;;;;;;28.50;7.23;;;23.90;31.70;;;;;;4982894;28;20492;-71
2022/06/22 11:48:29;;;;;;;34.67;7.90;;;23.90;32.50;;;;;;4978045;28;20836;-70
2022/06/22 11:51:07;;;;;;;32.03;9.00;;;23.80;32.80;;;;;;4989410;28;21221;-70
2022/06/22 11:53:50;;;;;;;31.60;7.93;;;23.70;33.10;;;;;;4988662;28;20460;-71
2022/06/22 11:56:30;;;;;;;28.73;8.27;;;23.60;33.70;;;;;;4988699;28;20460;-70
2022/06/22 11:59:17;;;;;;;28.63;6.80;;;23.60;33.70;;;;;;4976566;28;20484;-71
2022/06/22 12:02:03;;;;;;;36.10;7.40;;;23.50;33.00;;;;;;4981177;28;20481;-70
2022/06/22 12:05:14;;;;;;;33.43;7.20;;;23.50;33.10;;;;;;4983105;28;20485;-69
2022/06/22 12:08:19;;;;;;;28.20;6.97;;;23.40;33.20;;;;;;4988237;28;20489;-70
2022/06/22 12:10:49;;;;;;;27.63;6.50;;;23.30;33.90;;;;;;4987106;28;20473;-70
2022/06/22 12:15:04;;;;;;;29.27;5.97;;;23.30;34.00;;;;;;4988966;28;20837;-70
2022/06/22 12:16:36;;;;;;;28.03;6.53;;;23.40;34.40;;;;;;4978551;28;20449;-71
2022/06/22 12:19:14;;;;;;;27.10;6.90;;;23.50;34.50;;;;;;4980495;28;20492;-71
2022/06/22 12:22:00;;;;;;;29.80;7.13;;;23.60;35.00;;;;;;4984172;28;20465;-72
2022/06/22 12:24:36;;;;;;;26.20;6.60;;;23.60;35.10;;;;;;4980508;28;20683;-70
2022/06/22 12:27:10;;;;;;;27.73;8.43;;;23.70;35.40;;;;;;4985062;28;20456;-70
2022/06/22 12:30:12;;;;;;;28.47;6.60;;;23.80;35.00;;;;;;4985595;28;20467;-70
2022/06/22 12:32:46;;;;;;;26.70;6.80;;;23.90;35.10;;;;;;4981936;28;20480;-70
2022/06/22 12:35:23;;;;;;;27.77;6.80;;;24.10;34.30;;;;;;4973766;28;21033;-70
2022/06/22 12:37:56;;;;;;;27.07;6.60;;;24.30;34.10;;;;;;4978451;28;20500;-70
2022/06/22 12:40:29;;;;;;;28.37;6.67;;;24.50;33.60;;;;;;4982468;28;20456;-70
2022/06/22 12:43:10;;;;;;;29.33;5.80;;;24.70;32.70;;;;;;4987737;28;20448;-72
2022/06/22 12:45:51;;;;;;;30.20;7.40;;;24.90;31.50;;;;;;4987749;28;20841;-69
2022/06/22 12:48:52;;;;;;;27.00;6.00;;;25.10;31.30;;;;;;4980658;28;20532;-69
2022/06/22 12:51:27;;;;;;;28.37;5.70;;;25.20;31.60;;;;;;4969375;28;20920;-69
2022/06/22 12:54:02;;;;;;;30.47;6.33;;;25.20;30.20;;;;;;4970018;28;20445;-70
2022/06/22 12:56:32;;;;;;;28.27;6.10;;;25.20;30.30;;;;;;4968796;28;20456;-70
2022/06/22 12:59:05;;;;;;;27.80;5.50;;;25.30;30.80;;;;;;4972908;28;20497;-71
2022/06/22 13:01:33;;;;;;;24.30;5.47;;;25.20;30.30;;;;;;4986476;28;20479;-71
2022/06/22 13:04:03;;;;;;;28.03;5.20;;;25.10;30.20;;;;;;4988530;28;20488;-70
2022/06/22 13:06:32;;;;;;;28.17;5.57;;;25.00;30.50;;;;;;4989218;28;20531;-69
2022/06/22 13:09:05;;;;;;;28.30;6.60;;;24.90;29.90;;;;;;4975232;28;20486;-71
2022/06/22 13:11:32;;;;;;;28.27;6.13;;;24.90;30.20;;;;;;4968391;28;20454;-69
2022/06/22 13:14:08;;;;;;;28.30;5.50;;;24.90;30.60;;;;;;4968716;28;20465;-69
2022/06/22 13:16:41;;;;;;;26.37;6.60;;;24.90;30.80;;;;;;4975539;28;20901;-70
2022/06/22 13:19:14;;;;;;;27.33;6.23;;;25.00;31.30;;;;;;4986583;28;20508;-70
2022/06/22 13:21:46;;;;;;;25.47;5.33;;;25.00;32.10;;;;;;4988277;28;20449;-70
2022/06/22 13:24:24;;;;;;;30.30;6.90;;;25.20;31.40;;;;;;4987882;28;20465;-70
2022/06/22 13:27:00;;;;;;;26.93;6.80;;;25.20;31.10;;;;;;4987760;28;20452;-69
2022/06/22 13:29:32;;;;;;;28.30;6.90;;;25.30;30.80;;;;;;4986579;28;20911;-71
2022/06/22 13:32:03;;;;;;;31.30;6.77;;;25.40;30.10;;;;;;4987218;28;20484;-72
2022/06/22 13:34:37;;;;;;;33.53;8.10;;;25.40;29.90;;;;;;4988862;28;20464;-69
2022/06/22 13:37:15;;;;;;;31.07;7.20;;;25.40;29.70;;;;;;4988022;28;20448;-70
2022/06/22 13:39:58;;;;;;;27.97;6.50;;;25.40;29.70;;;;;;4984878;28;20464;-70
2022/06/22 13:42:59;;;;;;;32.03;7.67;;;25.40;29.40;;;;;;4990520;28;20464;-69
2022/06/22 13:45:44;;;;;;;28.07;5.90;;;25.40;28.70;;;;;;4973441;28;20484;-70
2022/06/22 13:48:26;;;;;;;30.50;6.30;;;25.40;28.00;;;;;;4973036;28;20481;-70
2022/06/22 13:51:18;;;;;;;27.43;6.13;;;25.40;27.20;;;;;;4985382;28;20471;-72